Time;durP1;ratioP1;P1;durP2;ratioP2;P2;SDS_P1;SDS_P2;PMS_P1;PMS_P2;Temp;Humidity;BMP_temperature;BMP_pressure;BME280_temperature;BME280_humidity;BME280_pressure;Samples;Min_cycle;Max_cycle;Signal;HPM_P1;HPM_P2
2023/07/14 00:00:08;;;;;;;0.00;0.00;;;17.10;96.00;;;;;;5049803;28;20177;-63
2023/07/14 00:02:35;;;;;;;0.00;0.00;;;17.00;96.10;;;;;;5050090;28;20617;-63
2023/07/14 00:05:01;;;;;;;0.00;0.00;;;17.00;96.40;;;;;;5050418;28;20775;-63
2023/07/14 00:07:27;;;;;;;0.00;0.00;;;16.90;97.10;;;;;;5049641;28;20209;-63
2023/07/14 00:09:52;;;;;;;0.00;0.00;;;16.90;97.20;;;;;;5050229;28;20219;-63
2023/07/14 00:12:18;;;;;;;0.00;0.00;;;16.80;97.40;;;;;;5049953;28;20186;-62
2023/07/14 00:14:44;;;;;;;0.00;0.00;;;16.80;97.60;;;;;;5041463;28;20637;-63
2023/07/14 00:17:13;;;;;;;0.00;0.00;;;16.80;98.10;;;;;;5050245;28;20205;-64
2023/07/14 00:19:39;;;;;;;0.00;0.00;;;16.80;98.20;;;;;;5048981;28;20213;-64
2023/07/14 00:22:14;;;;;;;0.00;0.00;;;16.80;98.20;;;;;;5049706;28;20213;-64
2023/07/14 00:24:42;;;;;;;0.00;0.00;;;16.80;98.30;;;;;;5050166;28;20181;-64
2023/07/14 00:27:20;;;;;;;0.00;0.00;;;16.70;98.40;;;;;;5050073;28;20209;-63
2023/07/14 00:29:46;;;;;;;0.10;0.10;;;16.70;98.40;;;;;;5053682;28;20197;-64
2023/07/14 00:32:22;;;;;;;0.00;0.00;;;16.70;98.50;;;;;;5053399;28;20243;-63
2023/07/14 00:34:48;;;;;;;0.00;0.00;;;16.70;98.90;;;;;;5053366;28;20184;-63
2023/07/14 00:37:14;;;;;;;0.00;0.00;;;16.60;99.00;;;;;;5052886;28;20181;-63
2023/07/14 00:39:41;;;;;;;0.00;0.00;;;16.60;99.00;;;;;;5053513;28;20184;-64
2023/07/14 00:42:14;;;;;;;0.00;0.00;;;16.60;99.10;;;;;;5053177;28;20221;-64
2023/07/14 00:44:40;;;;;;;0.00;0.00;;;16.60;99.30;;;;;;5053269;28;20523;-64
2023/07/14 00:47:19;;;;;;;0.00;0.00;;;16.60;99.20;;;;;;5052873;28;20221;-63
2023/07/14 00:49:45;;;;;;;0.00;0.00;;;16.60;99.20;;;;;;5053386;28;20575;-63
2023/07/14 00:52:20;;;;;;;0.00;0.00;;;16.60;99.00;;;;;;5052699;28;20219;-63
2023/07/14 00:54:51;;;;;;;0.00;0.00;;;16.60;99.00;;;;;;5051824;28;20189;-63
2023/07/14 00:57:18;;;;;;;0.10;0.10;;;16.50;99.10;;;;;;5053149;28;20205;-63
2023/07/14 00:59:43;;;;;;;0.00;0.00;;;16.50;99.40;;;;;;5053282;28;20238;-63
2023/07/14 01:02:15;;;;;;;0.00;0.00;;;16.50;99.60;;;;;;5044278;28;20273;-63
2023/07/14 01:04:45;;;;;;;0.00;0.00;;;16.40;99.90;;;;;;5052758;28;20182;-63
2023/07/14 01:07:12;;;;;;;0.00;0.00;;;16.40;99.90;;;;;;5047359;28;20254;-63
2023/07/14 01:09:39;;;;;;;0.00;0.00;;;16.40;99.90;;;;;;5049645;28;20260;-63
2023/07/14 01:12:06;;;;;;;0.00;0.00;;;16.40;99.90;;;;;;5052382;28;20178;-63
2023/07/14 01:14:35;;;;;;;0.00;0.00;;;16.40;99.90;;;;;;5052847;28;20235;-63
2023/07/14 01:17:03;;;;;;;0.00;0.00;;;16.40;99.90;;;;;;5052592;28;20275;-63
2023/07/14 01:19:40;;;;;;;0.00;0.00;;;16.40;99.90;;;;;;5052834;28;20181;-63
2023/07/14 01:22:29;;;;;;;0.00;0.00;;;16.40;99.90;;;;;;5052176;28;20209;-63
2023/07/14 01:25:00;;;;;;;0.00;0.00;;;16.40;99.90;;;;;;5052657;28;20193;-63
2023/07/14 01:27:26;;;;;;;0.10;0.10;;;16.30;99.90;;;;;;5052342;28;20275;-65
2023/07/14 01:29:53;;;;;;;0.00;0.00;;;16.30;99.90;;;;;;5052759;28;20676;-63
2023/07/14 01:32:21;;;;;;;0.00;0.00;;;16.30;99.90;;;;;;5052163;28;20193;-64
2023/07/14 01:34:47;;;;;;;0.00;0.00;;;16.20;99.90;;;;;;5052450;28;20544;-63
2023/07/14 01:37:16;;;;;;;0.00;0.00;;;16.20;99.90;;;;;;5052239;28;20182;-63
2023/07/14 01:39:43;;;;;;;0.00;0.00;;;16.20;99.90;;;;;;5051198;28;20184;-63
2023/07/14 01:42:09;;;;;;;0.00;0.00;;;16.10;99.90;;;;;;5052398;28;20653;-63
2023/07/14 01:44:35;;;;;;;0.10;0.10;;;16.10;99.90;;;;;;5052149;28;20209;-63
2023/07/14 01:47:02;;;;;;;0.08;0.08;;;16.10;99.90;;;;;;5052147;28;20304;-63
2023/07/14 01:49:34;;;;;;;0.00;0.00;;;16.00;99.90;;;;;;5052217;28;20186;-63
2023/07/14 01:52:03;;;;;;;0.00;0.00;;;16.00;99.90;;;;;;5052091;28;20541;-63
2023/07/14 01:54:37;;;;;;;0.00;0.00;;;15.90;99.90;;;;;;5051994;28;20223;-63
2023/07/14 01:57:09;;;;;;;0.00;0.00;;;15.90;99.90;;;;;;5052165;28;20201;-63
2023/07/14 01:59:39;;;;;;;0.00;0.00;;;15.90;99.90;;;;;;5052245;28;20212;-63
2023/07/14 02:02:11;;;;;;;0.00;0.00;;;15.90;99.90;;;;;;5051300;28;20266;-63
2023/07/14 02:04:38;;;;;;;0.10;0.10;;;15.90;99.90;;;;;;5051766;28;20549;-63
2023/07/14 02:07:04;;;;;;;0.00;0.00;;;15.90;99.90;;;;;;5051431;28;20579;-63
2023/07/14 02:09:31;;;;;;;0.00;0.00;;;16.00;99.90;;;;;;5051560;28;20173;-63
2023/07/14 02:11:59;;;;;;;0.00;0.00;;;16.00;99.90;;;;;;5051665;28;20178;-63
2023/07/14 02:14:31;;;;;;;0.10;0.10;;;15.90;99.90;;;;;;5049953;28;20690;-63
2023/07/14 02:17:03;;;;;;;0.00;0.00;;;15.90;99.90;;;;;;5051561;28;20203;-64
2023/07/14 02:19:29;;;;;;;0.00;0.00;;;15.90;99.90;;;;;;5051593;28;20184;-63
2023/07/14 02:21:55;;;;;;;0.00;0.00;;;15.90;99.90;;;;;;5051364;28;20211;-64
2023/07/14 02:24:24;;;;;;;0.00;0.00;;;15.90;99.90;;;;;;5051024;28;20196;-63
2023/07/14 02:26:56;;;;;;;0.00;0.00;;;15.90;99.90;;;;;;5051329;28;20201;-63
2023/07/14 02:29:22;;;;;;;0.00;0.00;;;15.90;99.90;;;;;;5049755;28;20570;-63
2023/07/14 02:31:55;;;;;;;0.00;0.00;;;15.90;99.90;;;;;;5051312;28;20188;-63
2023/07/14 02:34:21;;;;;;;0.00;0.00;;;15.90;99.90;;;;;;5049388;28;20185;-63
2023/07/14 02:36:58;;;;;;;0.05;0.03;;;15.90;99.90;;;;;;5050947;28;20629;-64
2023/07/14 02:39:24;;;;;;;0.00;0.00;;;15.80;99.90;;;;;;5051098;28;20196;-63
2023/07/14 02:41:53;;;;;;;0.00;0.00;;;15.80;99.90;;;;;;5051133;28;20181;-63
2023/07/14 02:44:20;;;;;;;0.00;0.00;;;15.80;99.90;;;;;;5051221;28;20181;-63
2023/07/14 02:47:00;;;;;;;0.00;0.00;;;15.70;99.90;;;;;;5050419;28;20256;-63
2023/07/14 02:49:26;;;;;;;0.00;0.00;;;15.70;99.90;;;;;;5051085;28;20188;-63
2023/07/14 02:51:52;;;;;;;0.00;0.00;;;15.60;99.90;;;;;;5049234;28;20177;-63
2023/07/14 02:54:17;;;;;;;0.00;0.00;;;15.60;99.90;;;;;;5051193;28;20186;-63
2023/07/14 02:56:43;;;;;;;0.00;0.00;;;15.60;99.90;;;;;;5050761;28;20537;-63
2023/07/14 02:59:12;;;;;;;0.10;0.10;;;15.60;99.90;;;;;;5050661;28;20178;-63
2023/07/14 03:01:37;;;;;;;0.00;0.00;;;15.60;99.90;;;;;;5050579;28;20185;-63
2023/07/14 03:04:03;;;;;;;0.00;0.00;;;15.50;99.90;;;;;;5050616;28;20212;-63
2023/07/14 03:06:29;;;;;;;0.08;0.08;;;15.50;99.90;;;;;;5050261;28;20258;-63
2023/07/14 03:08:54;;;;;;;0.00;0.00;;;15.40;99.90;;;;;;5050490;28;20213;-63
2023/07/14 03:11:20;;;;;;;0.00;0.00;;;15.40;99.90;;;;;;5050542;28;20185;-63
2023/07/14 03:13:48;;;;;;;0.00;0.00;;;15.30;99.90;;;;;;5050693;28;20192;-63
2023/07/14 03:16:14;;;;;;;0.00;0.00;;;15.30;99.90;;;;;;5050616;28;20182;-63
2023/07/14 03:18:40;;;;;;;0.00;0.00;;;15.20;99.90;;;;;;5050314;28;20197;-64
2023/07/14 03:21:05;;;;;;;0.00;0.00;;;15.20;99.90;;;;;;5050579;28;20174;-63
2023/07/14 03:23:33;;;;;;;0.00;0.00;;;15.20;99.90;;;;;;5050638;28;20268;-64
2023/07/14 03:26:01;;;;;;;0.00;0.00;;;15.20;99.90;;;;;;5049157;28;20683;-64
2023/07/14 03:28:29;;;;;;;0.00;0.00;;;15.10;99.90;;;;;;5050308;28;20237;-64
2023/07/14 03:30:54;;;;;;;0.10;0.10;;;15.10;99.90;;;;;;5050489;28;20182;-64
2023/07/14 03:33:20;;;;;;;0.00;0.00;;;15.10;99.90;;;;;;5050363;28;20177;-64
2023/07/14 03:35:45;;;;;;;0.00;0.00;;;15.10;99.90;;;;;;5050395;28;20223;-64
2023/07/14 03:38:11;;;;;;;0.00;0.00;;;15.10;99.90;;;;;;5050288;28;20543;-64
2023/07/14 03:40:37;;;;;;;0.00;0.00;;;15.10;99.90;;;;;;5049363;28;20239;-64
2023/07/14 03:43:05;;;;;;;0.00;0.00;;;15.10;99.90;;;;;;5047389;28;20797;-63
2023/07/14 03:45:33;;;;;;;0.00;0.00;;;15.10;99.90;;;;;;5048530;28;20397;-64
2023/07/14 03:47:58;;;;;;;0.00;0.00;;;15.00;99.90;;;;;;5049595;28;20205;-64
2023/07/14 03:50:24;;;;;;;0.00;0.00;;;15.00;99.90;;;;;;5049292;28;20204;-63
2023/07/14 03:52:50;;;;;;;0.00;0.00;;;15.10;99.90;;;;;;5050169;28;20652;-63
2023/07/14 03:55:16;;;;;;;0.00;0.00;;;15.10;99.90;;;;;;5050345;28;20174;-64
2023/07/14 03:57:41;;;;;;;0.00;0.00;;;15.10;99.90;;;;;;5050565;28;20268;-64
2023/07/14 04:00:17;;;;;;;0.00;0.00;;;15.20;99.90;;;;;;5049590;28;20233;-63
2023/07/14 04:02:44;;;;;;;0.00;0.00;;;15.20;99.90;;;;;;5050088;28;20258;-62
2023/07/14 04:05:11;;;;;;;0.00;0.00;;;15.30;99.90;;;;;;5053728;28;20189;-64
2023/07/14 04:07:38;;;;;;;0.00;0.00;;;15.40;99.90;;;;;;5053790;28;20205;-61
2023/07/14 04:10:05;;;;;;;0.00;0.00;;;15.50;99.90;;;;;;5054291;28;20535;-62
2023/07/14 04:12:32;;;;;;;0.00;0.00;;;15.50;99.90;;;;;;5053912;28;20178;-64
2023/07/14 04:14:58;;;;;;;0.13;0.13;;;15.60;99.90;;;;;;5054186;28;20257;-62
2023/07/14 04:17:23;;;;;;;0.00;0.00;;;15.60;99.90;;;;;;5052735;28;20672;-65
2023/07/14 04:19:49;;;;;;;0.17;0.17;;;15.60;99.90;;;;;;5052560;28;20193;-65
2023/07/14 04:22:17;;;;;;;0.00;0.00;;;15.60;99.90;;;;;;5053942;28;20224;-65
2023/07/14 04:24:42;;;;;;;0.00;0.00;;;15.70;99.90;;;;;;5053909;28;20174;-65
2023/07/14 04:27:08;;;;;;;0.00;0.00;;;15.70;99.90;;;;;;5054034;28;20671;-65
2023/07/14 04:29:34;;;;;;;0.20;0.10;;;15.80;99.90;;;;;;5053667;28;20722;-65
2023/07/14 04:31:59;;;;;;;0.00;0.00;;;15.80;99.90;;;;;;5053939;28;20226;-65
2023/07/14 04:34:29;;;;;;;0.00;0.00;;;15.80;99.90;;;;;;5054056;28;20190;-65
2023/07/14 04:36:55;;;;;;;0.00;0.00;;;15.80;99.90;;;;;;5053790;28;20182;-65
2023/07/14 04:39:23;;;;;;;0.00;0.00;;;15.90;99.90;;;;;;5053440;28;20260;-64
2023/07/14 04:41:49;;;;;;;0.00;0.00;;;16.00;99.90;;;;;;5054070;28;20209;-65
2023/07/14 04:44:16;;;;;;;0.03;0.03;;;16.00;99.90;;;;;;5053732;28;20237;-64
2023/07/14 04:46:43;;;;;;;0.00;0.00;;;16.10;99.90;;;;;;5053731;28;20637;-64
2023/07/14 04:49:10;;;;;;;0.00;0.00;;;16.10;99.90;;;;;;5053862;28;20652;-64
2023/07/14 04:51:36;;;;;;;0.00;0.00;;;16.20;99.90;;;;;;5053785;28;20231;-64
2023/07/14 04:54:02;;;;;;;0.00;0.00;;;16.30;99.90;;;;;;5053905;28;20200;-65
2023/07/14 04:56:29;;;;;;;0.00;0.00;;;16.40;99.90;;;;;;5053737;28;20181;-64
2023/07/14 04:58:55;;;;;;;0.00;0.00;;;16.50;99.90;;;;;;5053691;28;20641;-64
2023/07/14 05:01:20;;;;;;;0.00;0.00;;;16.60;99.90;;;;;;5053571;28;20228;-64
2023/07/14 05:03:46;;;;;;;0.00;0.00;;;16.70;99.90;;;;;;5053683;28;20344;-64
2023/07/14 05:06:12;;;;;;;0.00;0.00;;;16.80;99.90;;;;;;5053565;28;20260;-64
2023/07/14 05:08:38;;;;;;;0.00;0.00;;;17.00;99.90;;;;;;5053520;28;20687;-64
2023/07/14 05:11:04;;;;;;;0.00;0.00;;;17.10;99.90;;;;;;5053510;28;20173;-64
2023/07/14 05:13:30;;;;;;;0.05;0.05;;;17.30;99.90;;;;;;5053361;28;20246;-65
2023/07/14 05:15:57;;;;;;;0.00;0.00;;;17.40;99.90;;;;;;5053256;28;20640;-64
2023/07/14 05:18:23;;;;;;;0.00;0.00;;;17.60;99.90;;;;;;5053318;28;20178;-64
2023/07/14 05:20:48;;;;;;;0.00;0.00;;;17.80;99.90;;;;;;5053350;28;20178;-64
2023/07/14 05:23:14;;;;;;;0.00;0.00;;;18.00;99.90;;;;;;5053164;28;20541;-64
2023/07/14 05:25:40;;;;;;;0.00;0.00;;;18.20;99.90;;;;;;5053300;28;20565;-64
2023/07/14 05:28:05;;;;;;;0.00;0.00;;;18.30;99.90;;;;;;5052944;28;20632;-64
2023/07/14 05:30:31;;;;;;;0.00;0.00;;;18.50;99.90;;;;;;5053258;28;20192;-64
2023/07/14 05:32:57;;;;;;;0.00;0.00;;;18.70;99.90;;;;;;5053005;28;20199;-62
2023/07/14 05:35:24;;;;;;;0.00;0.00;;;18.80;99.90;;;;;;5052786;28;20165;-62
2023/07/14 05:37:49;;;;;;;0.00;0.00;;;18.90;99.90;;;;;;5052879;28;20227;-62
2023/07/14 05:40:16;;;;;;;0.00;0.00;;;19.00;99.90;;;;;;5052724;28;20178;-62
2023/07/14 05:42:42;;;;;;;0.00;0.00;;;19.10;99.90;;;;;;5052863;28;20680;-62
2023/07/14 05:45:09;;;;;;;0.00;0.00;;;19.10;99.90;;;;;;5052791;28;20181;-62
2023/07/14 05:47:37;;;;;;;0.00;0.00;;;19.20;99.90;;;;;;5052390;28;20209;-63
2023/07/14 05:50:05;;;;;;;0.00;0.00;;;19.30;99.90;;;;;;5052646;28;20256;-62
2023/07/14 05:52:31;;;;;;;0.00;0.00;;;19.50;99.90;;;;;;5052411;28;20189;-63
2023/07/14 05:54:56;;;;;;;0.00;0.00;;;19.60;99.90;;;;;;5052409;28;20169;-63
2023/07/14 05:57:22;;;;;;;0.00;0.00;;;19.80;99.90;;;;;;5052357;28;20177;-64
2023/07/14 05:59:48;;;;;;;0.00;0.00;;;20.00;99.90;;;;;;5052405;28;20216;-63
2023/07/14 06:02:14;;;;;;;0.00;0.00;;;20.10;99.80;;;;;;5052032;28;20579;-63
2023/07/14 06:04:40;;;;;;;0.00;0.00;;;20.10;99.60;;;;;;5052422;28;20690;-64
2023/07/14 06:07:06;;;;;;;0.00;0.00;;;20.20;99.60;;;;;;5052294;28;20284;-63
2023/07/14 06:09:37;;;;;;;0.05;0.05;;;20.30;99.70;;;;;;5052306;28;20281;-64
2023/07/14 06:12:04;;;;;;;0.00;0.00;;;20.50;99.90;;;;;;5052483;28;20271;-63
2023/07/14 06:14:35;;;;;;;0.00;0.00;;;20.90;99.90;;;;;;5050958;28;20238;-64
2023/07/14 06:17:02;;;;;;;0.00;0.00;;;21.40;99.50;;;;;;5052205;28;20256;-63
2023/07/14 06:19:28;;;;;;;0.00;0.00;;;21.80;98.10;;;;;;5052267;28;20185;-64
2023/07/14 06:21:54;;;;;;;0.00;0.00;;;22.00;97.60;;;;;;5052120;28;20170;-64
2023/07/14 06:24:20;;;;;;;0.00;0.00;;;22.20;97.50;;;;;;5052146;28;20174;-64
2023/07/14 06:26:46;;;;;;;0.00;0.00;;;22.40;97.50;;;;;;5051640;28;20184;-63
2023/07/14 06:29:12;;;;;;;0.00;0.00;;;22.50;96.90;;;;;;5052159;28;20229;-63
2023/07/14 06:31:38;;;;;;;0.00;0.00;;;22.40;96.60;;;;;;5052198;28;20209;-64
2023/07/14 06:34:04;;;;;;;0.00;0.00;;;22.40;96.80;;;;;;5052044;28;20231;-63
2023/07/14 06:36:29;;;;;;;0.00;0.00;;;22.30;96.80;;;;;;5051857;28;20181;-63
2023/07/14 06:38:55;;;;;;;0.00;0.00;;;22.40;97.10;;;;;;5051913;28;20209;-64
2023/07/14 06:41:20;;;;;;;0.00;0.00;;;23.20;97.20;;;;;;5052068;28;20188;-63
2023/07/14 06:43:46;;;;;;;0.00;0.00;;;24.20;95.90;;;;;;5052103;28;20180;-63
2023/07/14 06:46:12;;;;;;;0.00;0.00;;;24.90;94.20;;;;;;5051922;28;20658;-63
2023/07/14 06:48:38;;;;;;;0.00;0.00;;;25.30;93.30;;;;;;5051581;28;20739;-63
2023/07/14 06:51:03;;;;;;;0.00;0.00;;;25.60;92.50;;;;;;5051942;28;20269;-64
2023/07/14 06:53:29;;;;;;;0.00;0.00;;;26.00;91.50;;;;;;5051739;28;20641;-63
2023/07/14 06:55:54;;;;;;;0.00;0.00;;;26.20;90.50;;;;;;5051866;28;20252;-63
2023/07/14 06:58:20;;;;;;;0.00;0.00;;;26.50;89.70;;;;;;5051718;28;20652;-63
2023/07/14 07:00:46;;;;;;;0.08;0.08;;;26.60;86.80;;;;;;5051741;28;20224;-63
2023/07/14 07:03:11;;;;;;;0.00;0.00;;;26.70;85.40;;;;;;5050508;28;20188;-63
2023/07/14 07:05:40;;;;;;;0.00;0.00;;;26.70;85.60;;;;;;5051605;28;20173;-63
2023/07/14 07:08:09;;;;;;;0.00;0.00;;;26.80;84.80;;;;;;5051624;28;20768;-63
2023/07/14 07:10:35;;;;;;;0.00;0.00;;;27.40;83.40;;;;;;5051322;28;20215;-64
2023/07/14 07:13:00;;;;;;;0.00;0.00;;;28.40;81.60;;;;;;5051954;28;20264;-63
2023/07/14 07:15:26;;;;;;;0.00;0.00;;;29.40;76.30;;;;;;5051854;28;20247;-64
2023/07/14 07:17:51;;;;;;;0.00;0.00;;;30.30;72.00;;;;;;5050485;28;20188;-64
2023/07/14 07:20:17;;;;;;;0.00;0.00;;;31.10;65.80;;;;;;5051594;28;20177;-64
2023/07/14 07:22:44;;;;;;;0.00;0.00;;;31.50;61.00;;;;;;5050478;28;20593;-64
2023/07/14 07:25:10;;;;;;;0.00;0.00;;;31.60;58.20;;;;;;5051773;28;20216;-64
2023/07/14 07:27:36;;;;;;;0.00;0.00;;;31.40;57.40;;;;;;5051359;28;20264;-64
2023/07/14 07:30:01;;;;;;;0.10;0.10;;;31.10;57.80;;;;;;5052011;28;20538;-65
2023/07/14 07:32:27;;;;;;;0.00;0.00;;;30.80;57.30;;;;;;5051641;28;20205;-64
2023/07/14 07:34:53;;;;;;;0.00;0.00;;;30.70;58.20;;;;;;5051500;28;20201;-64
2023/07/14 07:37:19;;;;;;;0.00;0.00;;;30.90;59.10;;;;;;5050684;28;20208;-64
2023/07/14 07:39:45;;;;;;;0.00;0.00;;;31.00;56.60;;;;;;5055565;28;20231;-64
2023/07/14 07:42:11;;;;;;;0.00;0.00;;;31.00;56.40;;;;;;5055513;28;20606;-64
2023/07/14 07:44:36;;;;;;;0.00;0.00;;;31.10;57.30;;;;;;5055556;28;20255;-65
2023/07/14 07:47:02;;;;;;;0.00;0.00;;;31.40;58.00;;;;;;5055347;28;20234;-64
2023/07/14 07:49:27;;;;;;;0.00;0.00;;;32.00;55.40;;;;;;5055345;28;20654;-64
2023/07/14 07:51:53;;;;;;;0.00;0.00;;;32.60;54.90;;;;;;5055233;28;20260;-65
2023/07/14 07:54:19;;;;;;;0.00;0.00;;;33.00;53.80;;;;;;5055351;28;20460;-64
2023/07/14 07:56:45;;;;;;;0.00;0.00;;;33.20;53.30;;;;;;5055379;28;20173;-64
2023/07/14 07:59:11;;;;;;;0.00;0.00;;;33.40;51.90;;;;;;5055247;28;20181;-63
2023/07/14 08:01:37;;;;;;;0.00;0.00;;;33.80;50.80;;;;;;5055133;28;20315;-64
2023/07/14 08:04:04;;;;;;;0.03;0.00;;;34.30;48.00;;;;;;5055122;28;20252;-63
2023/07/14 08:06:30;;;;;;;0.00;0.00;;;34.70;47.90;;;;;;5054959;28;20226;-64
2023/07/14 08:08:56;;;;;;;0.00;0.00;;;35.00;47.40;;;;;;5054796;28;20210;-63
2023/07/14 08:11:21;;;;;;;0.00;0.00;;;34.70;45.00;;;;;;5054844;28;20181;-64
2023/07/14 08:13:47;;;;;;;0.00;0.00;;;34.70;46.60;;;;;;5054977;28;20176;-63
2023/07/14 08:16:13;;;;;;;0.00;0.00;;;35.00;46.00;;;;;;5054778;28;20250;-63
2023/07/14 08:18:39;;;;;;;0.00;0.00;;;35.10;45.00;;;;;;5054780;28;20180;-64
2023/07/14 08:21:05;;;;;;;0.00;0.00;;;35.10;43.60;;;;;;5054814;28;20231;-63
2023/07/14 08:23:30;;;;;;;0.17;0.17;;;35.20;43.60;;;;;;5054760;28;20636;-64
2023/07/14 08:26:03;;;;;;;0.00;0.00;;;34.80;42.80;;;;;;5054735;28;20251;-64
2023/07/14 08:28:29;;;;;;;0.00;0.00;;;34.70;43.90;;;;;;5054343;28;20255;-64
2023/07/14 08:30:59;;;;;;;0.00;0.00;;;34.90;43.40;;;;;;5054582;28;20169;-64
2023/07/14 08:33:25;;;;;;;0.00;0.00;;;34.70;43.30;;;;;;5053402;28;20180;-64
2023/07/14 08:35:52;;;;;;;0.00;0.00;;;34.10;43.50;;;;;;5054628;28;20181;-64
2023/07/14 08:38:18;;;;;;;0.00;0.00;;;34.10;45.30;;;;;;5054529;28;20200;-64
2023/07/14 08:40:51;;;;;;;0.00;0.00;;;34.30;44.00;;;;;;5054321;28;20256;-64
2023/07/14 08:43:39;;;;;;;0.00;0.00;;;34.40;42.20;;;;;;5054459;28;20172;-64
2023/07/14 08:46:29;;;;;;;0.00;0.00;;;34.00;42.20;;;;;;5054395;28;20173;-65
2023/07/14 08:49:15;;;;;;;0.00;0.00;;;33.80;43.60;;;;;;5053294;28;20227;-64
2023/07/14 08:51:46;;;;;;;0.00;0.00;;;33.60;43.60;;;;;;5054239;28;20639;-64
2023/07/14 08:54:22;;;;;;;0.00;0.00;;;33.60;43.40;;;;;;5054155;28;20193;-64
2023/07/14 08:56:49;;;;;;;0.00;0.00;;;33.80;44.00;;;;;;5054204;28;20647;-64
2023/07/14 08:59:35;;;;;;;0.00;0.00;;;34.00;43.40;;;;;;5053937;28;20267;-64
2023/07/14 09:02:04;;;;;;;0.00;0.00;;;34.00;44.30;;;;;;5054128;28;20238;-64
2023/07/14 09:04:38;;;;;;;0.00;0.00;;;33.90;43.10;;;;;;5053929;28;20177;-64
2023/07/14 09:07:13;;;;;;;0.00;0.00;;;33.70;43.00;;;;;;5053985;28;20876;-63
2023/07/14 09:09:39;;;;;;;0.00;0.00;;;33.10;43.50;;;;;;5054004;28;20242;-63
2023/07/14 09:12:29;;;;;;;0.00;0.00;;;32.90;44.00;;;;;;5053884;28;20177;-63
2023/07/14 09:14:54;;;;;;;0.00;0.00;;;32.50;43.40;;;;;;5053738;28;20173;-63
2023/07/14 09:17:42;;;;;;;0.10;0.10;;;32.40;43.40;;;;;;5053663;28;20330;-64
2023/07/14 09:20:38;;;;;;;0.00;0.00;;;32.20;44.50;;;;;;5053836;28;20207;-64
2023/07/14 09:23:16;;;;;;;0.00;0.00;;;32.20;44.50;;;;;;5053688;28;20252;-63
2023/07/14 09:26:04;;;;;;;0.00;0.00;;;32.30;45.00;;;;;;5053635;28;20226;-63
2023/07/14 09:28:38;;;;;;;0.00;0.00;;;32.20;44.50;;;;;;5053112;28;20232;-64
2023/07/14 09:31:39;;;;;;;0.00;0.00;;;32.30;44.90;;;;;;5053518;28;20222;-64
2023/07/14 09:34:22;;;;;;;0.00;0.00;;;32.50;45.80;;;;;;5052396;28;20676;-63
2023/07/14 09:36:48;;;;;;;0.00;0.00;;;32.70;43.80;;;;;;5053531;28;20252;-65
2023/07/14 09:39:20;;;;;;;0.52;0.52;;;32.90;44.50;;;;;;5053313;28;20218;-64
2023/07/14 09:41:48;;;;;;;0.00;0.00;;;32.90;42.50;;;;;;5053496;28;20173;-64
2023/07/14 09:44:13;;;;;;;0.00;0.00;;;33.00;43.00;;;;;;5053150;28;20185;-64
2023/07/14 09:46:46;;;;;;;0.00;0.00;;;33.00;42.60;;;;;;5053097;28;20226;-64
2023/07/14 09:49:38;;;;;;;0.00;0.00;;;33.10;42.90;;;;;;5053013;28;20717;-64
2023/07/14 09:52:18;;;;;;;0.00;0.00;;;33.30;42.20;;;;;;5053045;28;20934;-64
2023/07/14 09:55:02;;;;;;;0.10;0.10;;;33.00;42.80;;;;;;5053017;28;20181;-64
2023/07/14 09:57:32;;;;;;;0.00;0.00;;;32.50;43.50;;;;;;5052941;28;20266;-64
2023/07/14 10:00:13;;;;;;;0.20;0.20;;;32.20;43.80;;;;;;5052162;28;20256;-64
2023/07/14 10:02:39;;;;;;;0.00;0.00;;;31.90;43.40;;;;;;5052800;28;20255;-64
2023/07/14 10:05:34;;;;;;;0.00;0.00;;;31.40;43.20;;;;;;5052869;28;20209;-64
2023/07/14 10:08:02;;;;;;;0.00;0.00;;;30.80;44.80;;;;;;5052855;28;20602;-63
2023/07/14 10:10:30;;;;;;;0.00;0.00;;;30.70;44.80;;;;;;5052672;28;20177;-63
2023/07/14 10:12:56;;;;;;;0.00;0.00;;;30.90;44.80;;;;;;5052597;28;20566;-63
2023/07/14 10:15:35;;;;;;;0.00;0.00;;;31.20;44.40;;;;;;5052594;28;20189;-63
2023/07/14 10:18:12;;;;;;;0.20;0.20;;;31.30;44.20;;;;;;5052774;28;20182;-63
2023/07/14 10:20:39;;;;;;;0.00;0.00;;;31.40;43.00;;;;;;5052555;28;20286;-63
2023/07/14 10:23:16;;;;;;;0.00;0.00;;;31.60;43.60;;;;;;5052356;28;20544;-63
2023/07/14 10:25:49;;;;;;;0.00;0.00;;;31.90;43.30;;;;;;5052523;28;20295;-62
2023/07/14 10:28:23;;;;;;;0.00;0.00;;;32.10;42.50;;;;;;5051848;28;20270;-63
2023/07/14 10:31:24;;;;;;;0.00;0.00;;;32.10;43.80;;;;;;5052417;28;20180;-63
2023/07/14 10:34:40;;;;;;;0.00;0.00;;;32.10;42.90;;;;;;5052416;28;20193;-63
2023/07/14 10:37:18;;;;;;;0.00;0.00;;;32.00;43.60;;;;;;5010368;28;20182;-63
2023/07/14 10:39:49;;;;;;;0.00;0.00;;;31.80;43.30;;;;;;5051330;28;20181;-63
2023/07/14 10:42:20;;;;;;;0.00;0.00;;;31.60;43.30;;;;;;5052130;28;20261;-63
2023/07/14 10:44:46;;;;;;;0.00;0.00;;;31.70;44.60;;;;;;5052044;28;20177;-63
2023/07/14 10:47:17;;;;;;;0.00;0.00;;;31.70;43.90;;;;;;5052052;28;20289;-63
2023/07/14 10:49:46;;;;;;;0.00;0.00;;;31.40;44.40;;;;;;5050968;28;20220;-63
2023/07/14 10:52:18;;;;;;;0.00;0.00;;;31.30;43.60;;;;;;5051922;28;20205;-63
2023/07/14 10:54:49;;;;;;;0.00;0.00;;;31.60;44.80;;;;;;5051951;28;20732;-62
2023/07/14 10:57:39;;;;;;;0.00;0.00;;;31.60;43.80;;;;;;5052080;28;20629;-63
2023/07/14 11:00:33;;;;;;;0.00;0.00;;;31.50;43.40;;;;;;5051880;28;20224;-63
2023/07/14 11:03:07;;;;;;;0.00;0.00;;;31.30;44.50;;;;;;5051758;28;20177;-63
2023/07/14 11:05:33;;;;;;;0.00;0.00;;;31.20;44.10;;;;;;5051581;28;20640;-63
2023/07/14 11:07:59;;;;;;;0.00;0.00;;;31.30;45.10;;;;;;5051667;28;20227;-63
2023/07/14 11:10:46;;;;;;;0.00;0.00;;;31.20;44.50;;;;;;5051757;28;20524;-62
2023/07/14 11:13:22;;;;;;;0.00;0.00;;;31.10;43.70;;;;;;5051472;28;20180;-63
2023/07/14 11:15:53;;;;;;;0.00;0.00;;;31.20;43.90;;;;;;5052023;28;20268;-63
2023/07/14 11:18:32;;;;;;;0.00;0.00;;;31.10;44.10;;;;;;5051613;28;20170;-62
2023/07/14 11:21:18;;;;;;;0.00;0.00;;;31.40;43.20;;;;;;5051722;28;20219;-63
2023/07/14 11:23:49;;;;;;;0.00;0.00;;;31.40;44.30;;;;;;5051506;28;20175;-62
2023/07/14 11:26:49;;;;;;;0.00;0.00;;;31.20;43.90;;;;;;5051481;28;20176;-63
2023/07/14 11:29:19;;;;;;;0.00;0.00;;;31.20;45.00;;;;;;5051207;28;20232;-64
2023/07/14 11:31:57;;;;;;;0.00;0.00;;;31.50;45.20;;;;;;5051654;28;20173;-63
2023/07/14 11:34:45;;;;;;;0.00;0.00;;;31.50;43.50;;;;;;5051537;28;20165;-63
2023/07/14 11:37:23;;;;;;;0.10;0.00;;;31.60;44.30;;;;;;5051526;28;20180;-63
2023/07/14 11:39:58;;;;;;;0.00;0.00;;;31.60;43.60;;;;;;5051454;28;20177;-63
2023/07/14 11:42:44;;;;;;;0.00;0.00;;;31.40;43.30;;;;;;5051430;28;20306;-63
2023/07/14 11:45:20;;;;;;;0.00;0.00;;;31.40;42.90;;;;;;5051502;28;20648;-64
2023/07/14 11:47:47;;;;;;;0.00;0.00;;;31.10;42.70;;;;;;5051301;28;20216;-63
2023/07/14 11:50:15;;;;;;;0.00;0.00;;;30.90;43.90;;;;;;5051243;28;20173;-63
2023/07/14 11:52:55;;;;;;;0.00;0.00;;;31.00;44.90;;;;;;5051370;28;20207;-64
2023/07/14 11:55:23;;;;;;;0.00;0.00;;;31.30;44.60;;;;;;5051341;28;20181;-64
2023/07/14 11:57:51;;;;;;;0.00;0.00;;;31.60;43.20;;;;;;5051360;28;20178;-64
2023/07/14 12:00:23;;;;;;;0.00;0.00;;;31.80;42.70;;;;;;5051079;28;20173;-63
2023/07/14 12:02:50;;;;;;;0.00;0.00;;;32.00;41.90;;;;;;5051344;28;20192;-64
2023/07/14 12:05:19;;;;;;;0.00;0.00;;;32.20;43.60;;;;;;5051042;28;20173;-64
2023/07/14 12:08:05;;;;;;;0.00;0.00;;;32.40;41.80;;;;;;5051151;28;20228;-64
2023/07/14 12:10:41;;;;;;;0.00;0.00;;;32.70;40.90;;;;;;5051139;28;20177;-62
2023/07/14 12:13:41;;;;;;;0.00;0.00;;;32.60;42.20;;;;;;5051213;28;20650;-62
2023/07/14 12:16:38;;;;;;;0.00;0.00;;;32.70;40.90;;;;;;5050782;28;20185;-62
2023/07/14 12:19:22;;;;;;;0.00;0.00;;;32.90;40.50;;;;;;5050956;28;20188;-62
2023/07/14 12:21:59;;;;;;;0.00;0.00;;;32.80;42.30;;;;;;5051202;28;20201;-62
2023/07/14 12:24:31;;;;;;;0.00;0.00;;;32.40;41.30;;;;;;5053161;28;20648;-62
2023/07/14 12:27:17;;;;;;;0.00;0.00;;;32.20;42.10;;;;;;5054651;28;20177;-62
2023/07/14 12:29:42;;;;;;;0.00;0.00;;;32.00;42.90;;;;;;5047275;28;20676;-62
2023/07/14 12:32:17;;;;;;;0.00;0.00;;;32.10;43.80;;;;;;5054663;28;20181;-62
2023/07/14 12:34:44;;;;;;;0.00;0.00;;;32.50;41.70;;;;;;5054577;28;20171;-61
2023/07/14 12:37:16;;;;;;;0.00;0.00;;;32.70;41.00;;;;;;5054481;28;20292;-62
2023/07/14 12:39:46;;;;;;;0.00;0.00;;;33.00;41.40;;;;;;5054347;28;20204;-61
2023/07/14 12:42:13;;;;;;;0.00;0.00;;;33.30;41.00;;;;;;5054327;28;20172;-62
2023/07/14 12:44:39;;;;;;;0.00;0.00;;;33.60;41.50;;;;;;5054462;28;20196;-62
2023/07/14 12:47:07;;;;;;;0.00;0.00;;;33.90;40.70;;;;;;5054210;28;20181;-62
2023/07/14 12:49:40;;;;;;;0.00;0.00;;;34.00;39.20;;;;;;5053782;28;20516;-62
2023/07/14 12:52:11;;;;;;;0.00;0.00;;;33.90;39.50;;;;;;5054327;28;20238;-62
2023/07/14 12:54:42;;;;;;;0.00;0.00;;;33.40;39.60;;;;;;5054362;28;20177;-62
2023/07/14 12:57:11;;;;;;;0.00;0.00;;;33.10;40.10;;;;;;5054248;28;20169;-62
2023/07/14 12:59:37;;;;;;;0.00;0.00;;;32.90;40.00;;;;;;5053943;28;20548;-62
2023/07/14 13:02:02;;;;;;;0.20;0.20;;;33.00;39.90;;;;;;5054244;28;20173;-63